sensor_id;sensor_type;location;lat;lon;timestamp;pressure;altitude;pressure_sealevel;temperature
69857;BMP280;57147;53.582;10.112;2022-12-18T00:02:23;102795.41;;;-6.55
69857;BMP280;57147;53.582;10.112;2022-12-18T00:07:24;102804.13;;;-6.45
69857;BMP280;57147;53.582;10.112;2022-12-18T00:12:25;102788.81;;;-6.48
69857;BMP280;57147;53.582;10.112;2022-12-18T00:17:28;102782.50;;;-6.55
69857;BMP280;57147;53.582;10.112;2022-12-18T00:22:29;102794.09;;;-6.50
69857;BMP280;57147;53.582;10.112;2022-12-18T00:27:29;102805.28;;;-6.61
69857;BMP280;57147;53.582;10.112;2022-12-18T00:32:32;102814.66;;;-6.71
69857;BMP280;57147;53.582;10.112;2022-12-18T00:37:33;102819.81;;;-6.71
69857;BMP280;57147;53.582;10.112;2022-12-18T00:42:34;102828.03;;;-6.66
69857;BMP280;57147;53.582;10.112;2022-12-18T00:47:37;102816.06;;;-6.67
69857;BMP280;57147;53.582;10.112;2022-12-18T00:52:40;102813.25;;;-6.75
69857;BMP280;57147;53.582;10.112;2022-12-18T00:57:41;102787.75;;;-6.91
69857;BMP280;57147;53.582;10.112;2022-12-18T01:02:44;102812.88;;;-6.81
69857;BMP280;57147;53.582;10.112;2022-12-18T01:07:45;102810.53;;;-6.84
69857;BMP280;57147;53.582;10.112;2022-12-18T01:12:45;102820.28;;;-6.88
69857;BMP280;57147;53.582;10.112;2022-12-18T01:17:48;102824.72;;;-6.90
69857;BMP280;57147;53.582;10.112;2022-12-18T01:22:49;102822.09;;;-7.01
69857;BMP280;57147;53.582;10.112;2022-12-18T01:27:49;102828.38;;;-6.93
69857;BMP280;57147;53.582;10.112;2022-12-18T01:32:53;102814.84;;;-6.96
69857;BMP280;57147;53.582;10.112;2022-12-18T01:37:54;102815.56;;;-6.94
69857;BMP280;57147;53.582;10.112;2022-12-18T01:42:54;102812.25;;;-6.96
69857;BMP280;57147;53.582;10.112;2022-12-18T01:47:59;102825.16;;;-6.96
69857;BMP280;57147;53.582;10.112;2022-12-18T01:53:04;102833.84;;;-6.97
69857;BMP280;57147;53.582;10.112;2022-12-18T01:58:05;102833.66;;;-6.94
69857;BMP280;57147;53.582;10.112;2022-12-18T02:03:09;102827.63;;;-6.95
69857;BMP280;57147;53.582;10.112;2022-12-18T02:08:12;102838.91;;;-6.96
69857;BMP280;57147;53.582;10.112;2022-12-18T02:13:19;102845.69;;;-7.06
69857;BMP280;57147;53.582;10.112;2022-12-18T02:18:23;102832.91;;;-7.07
69857;BMP280;57147;53.582;10.112;2022-12-18T02:23:39;102796.69;;;-7.30
69857;BMP280;57147;53.582;10.112;2022-12-18T02:28:46;102847.94;;;-7.01
69857;BMP280;57147;53.582;10.112;2022-12-18T02:33:50;102856.72;;;-7.04
69857;BMP280;57147;53.582;10.112;2022-12-18T02:38:51;102841.75;;;-7.23
69857;BMP280;57147;53.582;10.112;2022-12-18T02:43:58;102854.91;;;-7.14
69857;BMP280;57147;53.582;10.112;2022-12-18T02:49:06;102857.72;;;-7.17
69857;BMP280;57147;53.582;10.112;2022-12-18T02:54:10;102834.47;;;-7.29
69857;BMP280;57147;53.582;10.112;2022-12-18T02:59:19;102856.09;;;-7.18
69857;BMP280;57147;53.582;10.112;2022-12-18T03:04:26;102872.25;;;-7.28
69857;BMP280;57147;53.582;10.112;2022-12-18T03:09:30;102876.47;;;-7.27
69857;BMP280;57147;53.582;10.112;2022-12-18T03:14:37;102870.97;;;-7.22
69857;BMP280;57147;53.582;10.112;2022-12-18T03:19:38;102872.13;;;-7.37
69857;BMP280;57147;53.582;10.112;2022-12-18T03:24:40;102869.63;;;-7.39
69857;BMP280;57147;53.582;10.112;2022-12-18T03:29:47;102859.28;;;-7.39
69857;BMP280;57147;53.582;10.112;2022-12-18T03:34:48;102871.72;;;-7.44
69857;BMP280;57147;53.582;10.112;2022-12-18T03:39:50;102866.78;;;-7.47
69857;BMP280;57147;53.582;10.112;2022-12-18T03:44:57;102864.09;;;-7.45
69857;BMP280;57147;53.582;10.112;2022-12-18T03:50:07;102864.84;;;-7.56
69857;BMP280;57147;53.582;10.112;2022-12-18T03:55:11;102868.03;;;-7.53
69857;BMP280;57147;53.582;10.112;2022-12-18T04:00:17;102858.09;;;-7.46
69857;BMP280;57147;53.582;10.112;2022-12-18T04:05:19;102849.66;;;-7.48
69857;BMP280;57147;53.582;10.112;2022-12-18T04:10:20;102858.09;;;-7.46
69857;BMP280;57147;53.582;10.112;2022-12-18T04:15:24;102862.78;;;-7.51
69857;BMP280;57147;53.582;10.112;2022-12-18T04:20:24;102859.25;;;-7.50
69857;BMP280;57147;53.582;10.112;2022-12-18T04:25:25;102852.16;;;-7.59
69857;BMP280;57147;53.582;10.112;2022-12-18T04:30:28;102862.41;;;-7.70
69857;BMP280;57147;53.582;10.112;2022-12-18T04:35:29;102870.84;;;-7.68
69857;BMP280;57147;53.582;10.112;2022-12-18T04:40:29;102860.13;;;-7.62
69857;BMP280;57147;53.582;10.112;2022-12-18T04:45:33;102860.28;;;-7.76
69857;BMP280;57147;53.582;10.112;2022-12-18T04:50:33;102861.47;;;-7.69
69857;BMP280;57147;53.582;10.112;2022-12-18T04:55:34;102853.03;;;-7.71
69857;BMP280;57147;53.582;10.112;2022-12-18T05:00:37;102866.81;;;-7.60
69857;BMP280;57147;53.582;10.112;2022-12-18T05:05:38;102803.28;;;-8.10
69857;BMP280;57147;53.582;10.112;2022-12-18T05:10:38;102883.56;;;-7.65
69857;BMP280;57147;53.582;10.112;2022-12-18T05:15:41;102892.16;;;-7.77
69857;BMP280;57147;53.582;10.112;2022-12-18T05:20:42;102891.41;;;-7.80
69857;BMP280;57147;53.582;10.112;2022-12-18T05:25:42;102896.16;;;-7.73
69857;BMP280;57147;53.582;10.112;2022-12-18T05:30:51;102902.75;;;-7.69
69857;BMP280;57147;53.582;10.112;2022-12-18T05:35:52;102894.09;;;-7.81
69857;BMP280;57147;53.582;10.112;2022-12-18T05:40:53;102902.75;;;-7.69
69857;BMP280;57147;53.582;10.112;2022-12-18T05:45:56;102910.00;;;-7.74
69857;BMP280;57147;53.582;10.112;2022-12-18T05:51:03;102917.63;;;-7.73
69857;BMP280;57147;53.582;10.112;2022-12-18T05:56:07;102898.88;;;-7.88
69857;BMP280;57147;53.582;10.112;2022-12-18T06:01:13;102916.78;;;-7.73
69857;BMP280;57147;53.582;10.112;2022-12-18T06:06:16;102901.00;;;-7.82
69857;BMP280;57147;53.582;10.112;2022-12-18T06:11:18;102902.06;;;-7.84
69857;BMP280;57147;53.582;10.112;2022-12-18T06:16:22;102927.53;;;-7.92
69857;BMP280;57147;53.582;10.112;2022-12-18T06:21:22;102928.88;;;-7.87
69857;BMP280;57147;53.582;10.112;2022-12-18T06:26:23;102943.00;;;-7.80
69857;BMP280;57147;53.582;10.112;2022-12-18T06:31:26;102932.06;;;-7.96
69857;BMP280;57147;53.582;10.112;2022-12-18T06:36:30;102939.81;;;-7.83
69857;BMP280;57147;53.582;10.112;2022-12-18T06:41:31;102944.75;;;-7.93
69857;BMP280;57147;53.582;10.112;2022-12-18T06:46:34;102950.94;;;-8.08
69857;BMP280;57147;53.582;10.112;2022-12-18T06:51:35;102947.25;;;-8.04
69857;BMP280;57147;53.582;10.112;2022-12-18T06:56:36;102947.31;;;-7.93
69857;BMP280;57147;53.582;10.112;2022-12-18T07:01:39;102931.47;;;-7.87
69857;BMP280;57147;53.582;10.112;2022-12-18T07:06:39;102945.38;;;-7.76
69857;BMP280;57147;53.582;10.112;2022-12-18T07:11:40;102880.63;;;-8.10
69857;BMP280;57147;53.582;10.112;2022-12-18T07:16:43;102933.59;;;-7.81
69857;BMP280;57147;53.582;10.112;2022-12-18T07:21:43;102948.78;;;-7.89
69857;BMP280;57147;53.582;10.112;2022-12-18T07:26:45;102946.41;;;-7.92
69857;BMP280;57147;53.582;10.112;2022-12-18T07:31:48;102955.38;;;-7.85
69857;BMP280;57147;53.582;10.112;2022-12-18T07:36:49;102968.78;;;-7.80
69857;BMP280;57147;53.582;10.112;2022-12-18T07:41:50;102962.50;;;-7.75
69857;BMP280;57147;53.582;10.112;2022-12-18T07:46:53;102978.47;;;-7.70
69857;BMP280;57147;53.582;10.112;2022-12-18T07:51:54;102979.72;;;-7.63
69857;BMP280;57147;53.582;10.112;2022-12-18T07:56:55;102960.22;;;-7.80
69857;BMP280;57147;53.582;10.112;2022-12-18T08:01:58;102986.53;;;-7.49
69857;BMP280;57147;53.582;10.112;2022-12-18T08:06:58;102975.38;;;-7.50
69857;BMP280;57147;53.582;10.112;2022-12-18T08:11:59;102973.78;;;-7.40
69857;BMP280;57147;53.582;10.112;2022-12-18T08:17:02;102983.75;;;-7.23
69857;BMP280;57147;53.582;10.112;2022-12-18T08:22:03;102959.78;;;-7.25
69857;BMP280;57147;53.582;10.112;2022-12-18T08:27:03;102972.09;;;-7.04
69857;BMP280;57147;53.582;10.112;2022-12-18T08:32:07;102967.72;;;-6.91
69857;BMP280;57147;53.582;10.112;2022-12-18T08:37:08;102968.25;;;-6.75
69857;BMP280;57147;53.582;10.112;2022-12-18T08:42:09;102966.38;;;-6.73
69857;BMP280;57147;53.582;10.112;2022-12-18T08:47:12;102964.97;;;-6.66
69857;BMP280;57147;53.582;10.112;2022-12-18T08:52:15;102976.47;;;-6.46
69857;BMP280;57147;53.582;10.112;2022-12-18T08:57:16;102973.75;;;-6.33
69857;BMP280;57147;53.582;10.112;2022-12-18T09:02:19;102981.75;;;-6.25
69857;BMP280;57147;53.582;10.112;2022-12-18T09:07:20;102962.97;;;-6.27
69857;BMP280;57147;53.582;10.112;2022-12-18T09:12:21;102970.94;;;-6.19
69857;BMP280;57147;53.582;10.112;2022-12-18T09:17:25;102969.53;;;-6.23
69857;BMP280;57147;53.582;10.112;2022-12-18T09:22:25;102962.63;;;-6.11
69857;BMP280;57147;53.582;10.112;2022-12-18T09:27:26;102968.84;;;-6.03
69857;BMP280;57147;53.582;10.112;2022-12-18T09:32:29;102965.81;;;-5.85
69857;BMP280;57147;53.582;10.112;2022-12-18T09:37:30;102977.09;;;-5.64
69857;BMP280;57147;53.582;10.112;2022-12-18T09:42:31;102972.59;;;-5.51
69857;BMP280;57147;53.582;10.112;2022-12-18T09:47:37;102969.06;;;-5.50
69857;BMP280;57147;53.582;10.112;2022-12-18T09:52:41;102983.09;;;-5.09
69857;BMP280;57147;53.582;10.112;2022-12-18T09:57:48;102985.91;;;-5.12
69857;BMP280;57147;53.582;10.112;2022-12-18T10:02:58;102978.78;;;-4.88
69857;BMP280;57147;53.582;10.112;2022-12-18T10:08:02;102955.00;;;-4.72
69857;BMP280;57147;53.582;10.112;2022-12-18T10:13:12;102948.03;;;-4.71
69857;BMP280;57147;53.582;10.112;2022-12-18T10:18:26;102980.97;;;-4.62
69857;BMP280;57147;53.582;10.112;2022-12-18T10:23:39;102952.28;;;-4.70
69857;BMP280;57147;53.582;10.112;2022-12-18T10:28:43;102992.91;;;-4.50
69857;BMP280;57147;53.582;10.112;2022-12-18T10:33:46;102995.50;;;-4.50
69857;BMP280;57147;53.582;10.112;2022-12-18T10:38:47;103004.53;;;-4.45
69857;BMP280;57147;53.582;10.112;2022-12-18T10:43:48;102981.97;;;-4.33
69857;BMP280;57147;53.582;10.112;2022-12-18T10:48:55;102994.06;;;-4.43
69857;BMP280;57147;53.582;10.112;2022-12-18T10:53:59;102970.97;;;-4.16
69857;BMP280;57147;53.582;10.112;2022-12-18T10:59:02;102964.38;;;-3.99
69857;BMP280;57147;53.582;10.112;2022-12-18T11:04:16;102965.28;;;-3.60
69857;BMP280;57147;53.582;10.112;2022-12-18T11:09:19;102968.06;;;-3.32
69857;BMP280;57147;53.582;10.112;2022-12-18T11:14:23;102962.03;;;-3.42
69857;BMP280;57147;53.582;10.112;2022-12-18T11:19:33;102970.53;;;-3.02
69857;BMP280;57147;53.582;10.112;2022-12-18T11:24:35;102967.44;;;-2.68
69857;BMP280;57147;53.582;10.112;2022-12-18T11:29:38;102971.28;;;-2.72
69857;BMP280;57147;53.582;10.112;2022-12-18T11:34:43;102951.13;;;-2.61
69857;BMP280;57147;53.582;10.112;2022-12-18T11:39:49;102951.31;;;-2.72
69857;BMP280;57147;53.582;10.112;2022-12-18T11:44:55;102920.09;;;-2.72
69857;BMP280;57147;53.582;10.112;2022-12-18T11:50:03;102944.28;;;-2.52
69857;BMP280;57147;53.582;10.112;2022-12-18T11:55:12;102942.88;;;-2.37
69857;BMP280;57147;53.582;10.112;2022-12-18T12:00:16;102891.91;;;-2.76
69857;BMP280;57147;53.582;10.112;2022-12-18T12:05:34;102933.19;;;-2.54
69857;BMP280;57147;53.582;10.112;2022-12-18T12:10:42;102923.31;;;-2.41
69857;BMP280;57147;53.582;10.112;2022-12-18T12:15:51;102909.03;;;-2.37
69857;BMP280;57147;53.582;10.112;2022-12-18T12:21:02;102900.06;;;-2.52
69857;BMP280;57147;53.582;10.112;2022-12-18T12:26:06;102888.84;;;-2.62
69857;BMP280;57147;53.582;10.112;2022-12-18T12:31:13;102893.72;;;-2.40
69857;BMP280;57147;53.582;10.112;2022-12-18T12:36:29;102882.81;;;-2.53
69857;BMP280;57147;53.582;10.112;2022-12-18T12:41:31;102872.00;;;-2.48
69857;BMP280;57147;53.582;10.112;2022-12-18T12:46:37;102862.50;;;-2.40
69857;BMP280;57147;53.582;10.112;2022-12-18T12:51:44;102853.06;;;-2.05
69857;BMP280;57147;53.582;10.112;2022-12-18T12:56:51;102820.13;;;-1.79
69857;BMP280;57147;53.582;10.112;2022-12-18T13:01:59;102822.06;;;-1.81
69857;BMP280;57147;53.582;10.112;2022-12-18T13:07:11;102821.03;;;-2.24
69857;BMP280;57147;53.582;10.112;2022-12-18T13:12:17;102843.84;;;-2.00
69857;BMP280;57147;53.582;10.112;2022-12-18T13:17:29;102822.44;;;-1.94
69857;BMP280;57147;53.582;10.112;2022-12-18T13:22:34;102835.22;;;-2.00
69857;BMP280;57147;53.582;10.112;2022-12-18T13:27:59;102828.25;;;-2.18
69857;BMP280;57147;53.582;10.112;2022-12-18T13:38:36;102836.34;;;-2.38
69857;BMP280;57147;53.582;10.112;2022-12-18T13:43:41;102822.09;;;-2.71
69857;BMP280;57147;53.582;10.112;2022-12-18T13:48:49;102809.69;;;-2.77
69857;BMP280;57147;53.582;10.112;2022-12-18T13:53:54;102824.94;;;-2.92
69857;BMP280;57147;53.582;10.112;2022-12-18T13:59:12;102832.09;;;-3.13
69857;BMP280;57147;53.582;10.112;2022-12-18T14:04:20;102848.69;;;-3.24
69857;BMP280;57147;53.582;10.112;2022-12-18T14:09:25;102832.00;;;-3.31
69857;BMP280;57147;53.582;10.112;2022-12-18T14:14:26;102831.09;;;-3.50
69857;BMP280;57147;53.582;10.112;2022-12-18T14:19:27;102820.16;;;-3.43
69857;BMP280;57147;53.582;10.112;2022-12-18T14:24:31;102812.47;;;-3.35
69857;BMP280;57147;53.582;10.112;2022-12-18T14:29:34;102780.81;;;-3.78
69857;BMP280;57147;53.582;10.112;2022-12-18T14:34:35;102820.81;;;-3.70
69857;BMP280;57147;53.582;10.112;2022-12-18T14:39:38;102808.94;;;-3.73
69857;BMP280;57147;53.582;10.112;2022-12-18T14:44:39;102809.09;;;-3.84
69857;BMP280;57147;53.582;10.112;2022-12-18T14:49:41;102788.31;;;-4.03
69857;BMP280;57147;53.582;10.112;2022-12-18T14:54:46;102811.00;;;-3.86
69857;BMP280;57147;53.582;10.112;2022-12-18T14:59:47;102750.75;;;-4.19
69857;BMP280;57147;53.582;10.112;2022-12-18T15:04:59;102784.63;;;-4.11
69857;BMP280;57147;53.582;10.112;2022-12-18T15:10:10;102774.13;;;-3.99
69857;BMP280;57147;53.582;10.112;2022-12-18T15:20:52;102759.47;;;-4.20
69857;BMP280;57147;53.582;10.112;2022-12-18T15:26:00;102739.41;;;-4.18
69857;BMP280;57147;53.582;10.112;2022-12-18T15:31:03;102734.91;;;-4.35
69857;BMP280;57147;53.582;10.112;2022-12-18T15:36:08;102711.66;;;-4.46
69857;BMP280;57147;53.582;10.112;2022-12-18T15:41:14;102708.16;;;-4.26
69857;BMP280;57147;53.582;10.112;2022-12-18T15:46:16;102715.66;;;-4.03
69857;BMP280;57147;53.582;10.112;2022-12-18T15:51:19;102711.16;;;-3.92
69857;BMP280;57147;53.582;10.112;2022-12-18T15:56:23;102716.34;;;-3.82
69857;BMP280;57147;53.582;10.112;2022-12-18T16:01:26;102713.59;;;-3.90
69857;BMP280;57147;53.582;10.112;2022-12-18T16:06:27;102712.81;;;-3.81
69857;BMP280;57147;53.582;10.112;2022-12-18T16:11:32;102710.72;;;-3.87
69857;BMP280;57147;53.582;10.112;2022-12-18T16:16:33;102711.41;;;-3.85
69857;BMP280;57147;53.582;10.112;2022-12-18T16:21:34;102700.22;;;-3.95
69857;BMP280;57147;53.582;10.112;2022-12-18T16:26:37;102695.03;;;-3.95
69857;BMP280;57147;53.582;10.112;2022-12-18T16:31:38;102672.91;;;-4.19
69857;BMP280;57147;53.582;10.112;2022-12-18T16:36:38;102681.25;;;-4.05
69857;BMP280;57147;53.582;10.112;2022-12-18T16:41:41;102678.09;;;-3.99
69857;BMP280;57147;53.582;10.112;2022-12-18T16:46:43;102616.28;;;-4.33
69857;BMP280;57147;53.582;10.112;2022-12-18T16:51:45;102669.91;;;-3.95
69857;BMP280;57147;53.582;10.112;2022-12-18T16:56:50;102677.56;;;-4.03
69857;BMP280;57147;53.582;10.112;2022-12-18T17:01:50;102676.19;;;-3.97
69857;BMP280;57147;53.582;10.112;2022-12-18T17:06:52;102654.38;;;-4.14
69857;BMP280;57147;53.582;10.112;2022-12-18T17:11:55;102654.63;;;-4.07
69857;BMP280;57147;53.582;10.112;2022-12-18T17:16:56;102647.53;;;-4.05
69857;BMP280;57147;53.582;10.112;2022-12-18T17:21:56;102634.13;;;-3.82
69857;BMP280;57147;53.582;10.112;2022-12-18T17:27:00;102633.03;;;-4.18
69857;BMP280;57147;53.582;10.112;2022-12-18T17:32:00;102644.50;;;-3.91
69857;BMP280;57147;53.582;10.112;2022-12-18T17:37:01;102649.00;;;-3.84
69857;BMP280;57147;53.582;10.112;2022-12-18T17:42:04;102653.34;;;-3.84
69857;BMP280;57147;53.582;10.112;2022-12-18T17:47:05;102633.81;;;-3.79
69857;BMP280;57147;53.582;10.112;2022-12-18T17:52:05;102610.44;;;-3.79
69857;BMP280;57147;53.582;10.112;2022-12-18T17:57:08;102592.38;;;-3.70
69857;BMP280;57147;53.582;10.112;2022-12-18T18:02:10;102589.06;;;-3.63
69857;BMP280;57147;53.582;10.112;2022-12-18T18:07:11;102559.91;;;-3.57
69857;BMP280;57147;53.582;10.112;2022-12-18T18:12:14;102557.19;;;-3.55
69857;BMP280;57147;53.582;10.112;2022-12-18T18:17:14;102549.28;;;-3.63
69857;BMP280;57147;53.582;10.112;2022-12-18T18:22:15;102557.59;;;-3.60
69857;BMP280;57147;53.582;10.112;2022-12-18T18:27:18;102560.72;;;-3.56
69857;BMP280;57147;53.582;10.112;2022-12-18T18:32:20;102543.19;;;-3.44
69857;BMP280;57147;53.582;10.112;2022-12-18T18:37:21;102531.19;;;-3.45
69857;BMP280;57147;53.582;10.112;2022-12-18T18:42:24;102535.66;;;-3.38
69857;BMP280;57147;53.582;10.112;2022-12-18T18:47:24;102542.72;;;-3.58
69857;BMP280;57147;53.582;10.112;2022-12-18T18:52:25;102525.19;;;-3.56
69857;BMP280;57147;53.582;10.112;2022-12-18T18:57:28;102520.69;;;-3.54
69857;BMP280;57147;53.582;10.112;2022-12-18T19:02:29;102497.06;;;-3.60
69857;BMP280;57147;53.582;10.112;2022-12-18T19:07:29;102499.91;;;-3.54
69857;BMP280;57147;53.582;10.112;2022-12-18T19:12:33;102497.00;;;-3.51
69857;BMP280;57147;53.582;10.112;2022-12-18T19:17:34;102482.81;;;-3.47
69857;BMP280;57147;53.582;10.112;2022-12-18T19:22:35;102469.16;;;-3.49
69857;BMP280;57147;53.582;10.112;2022-12-18T19:27:39;102453.28;;;-3.45
69857;BMP280;57147;53.582;10.112;2022-12-18T19:32:39;102444.81;;;-3.48
69857;BMP280;57147;53.582;10.112;2022-12-18T19:37:40;102444.56;;;-3.54
69857;BMP280;57147;53.582;10.112;2022-12-18T19:42:43;102445.38;;;-3.54
69857;BMP280;57147;53.582;10.112;2022-12-18T19:47:44;102446.63;;;-3.75
69857;BMP280;57147;53.582;10.112;2022-12-18T19:52:45;102437.28;;;-3.68
69857;BMP280;57147;53.582;10.112;2022-12-18T19:57:48;102430.53;;;-3.61
69857;BMP280;57147;53.582;10.112;2022-12-18T20:02:49;102408.28;;;-3.64
69857;BMP280;57147;53.582;10.112;2022-12-18T20:07:49;102415.84;;;-3.53
69857;BMP280;57147;53.582;10.112;2022-12-18T20:12:53;102407.38;;;-3.55
69857;BMP280;57147;53.582;10.112;2022-12-18T20:17:53;102403.25;;;-3.48
69857;BMP280;57147;53.582;10.112;2022-12-18T20:22:54;102407.69;;;-3.58
69857;BMP280;57147;53.582;10.112;2022-12-18T20:27:57;102378.81;;;-3.55
69857;BMP280;57147;53.582;10.112;2022-12-18T20:32:58;102324.47;;;-3.74
69857;BMP280;57147;53.582;10.112;2022-12-18T20:37:58;102357.91;;;-3.35
69857;BMP280;57147;53.582;10.112;2022-12-18T20:43:01;102368.06;;;-3.60
69857;BMP280;57147;53.582;10.112;2022-12-18T20:48:02;102349.81;;;-3.32
69857;BMP280;57147;53.582;10.112;2022-12-18T20:53:04;102339.59;;;-3.34
69857;BMP280;57147;53.582;10.112;2022-12-18T20:58:07;102342.69;;;-3.30
69857;BMP280;57147;53.582;10.112;2022-12-18T21:03:08;102323.13;;;-3.42
69857;BMP280;57147;53.582;10.112;2022-12-18T21:08:10;102331.03;;;-3.26
69857;BMP280;57147;53.582;10.112;2022-12-18T21:13:13;102289.19;;;-3.15
69857;BMP280;57147;53.582;10.112;2022-12-18T21:18:13;102278.31;;;-3.19
69857;BMP280;57147;53.582;10.112;2022-12-18T21:23:14;102281.16;;;-3.04
69857;BMP280;57147;53.582;10.112;2022-12-18T21:28:17;102264.22;;;-3.08
69857;BMP280;57147;53.582;10.112;2022-12-18T21:33:18;102280.13;;;-3.11
69857;BMP280;57147;53.582;10.112;2022-12-18T21:38:18;102328.44;;;-3.26
69857;BMP280;57147;53.582;10.112;2022-12-18T21:43:21;102341.91;;;-3.49
69857;BMP280;57147;53.582;10.112;2022-12-18T21:48:22;102358.38;;;-3.40
69857;BMP280;57147;53.582;10.112;2022-12-18T21:53:23;102351.84;;;-3.18
69857;BMP280;57147;53.582;10.112;2022-12-18T21:58:26;102317.50;;;-2.70
69857;BMP280;57147;53.582;10.112;2022-12-18T22:03:27;102293.03;;;-3.01
69857;BMP280;57147;53.582;10.112;2022-12-18T22:08:27;102307.44;;;-3.07
69857;BMP280;57147;53.582;10.112;2022-12-18T22:13:31;102295.72;;;-3.37
69857;BMP280;57147;53.582;10.112;2022-12-18T22:18:31;102239.38;;;-3.88
69857;BMP280;57147;53.582;10.112;2022-12-18T22:23:32;102303.28;;;-3.26
69857;BMP280;57147;53.582;10.112;2022-12-18T22:28:35;102292.38;;;-3.29
69857;BMP280;57147;53.582;10.112;2022-12-18T22:33:37;102273.44;;;-3.48
69857;BMP280;57147;53.582;10.112;2022-12-18T22:38:38;102276.84;;;-3.21
69857;BMP280;57147;53.582;10.112;2022-12-18T22:43:41;102271.97;;;-3.16
69857;BMP280;57147;53.582;10.112;2022-12-18T22:48:42;102254.16;;;-3.11
69857;BMP280;57147;53.582;10.112;2022-12-18T22:53:43;102249.66;;;-3.01
69857;BMP280;57147;53.582;10.112;2022-12-18T22:58:49;102234.59;;;-3.23
69857;BMP280;57147;53.582;10.112;2022-12-18T23:03:50;102240.84;;;-3.08
69857;BMP280;57147;53.582;10.112;2022-12-18T23:08:53;102214.84;;;-3.16
69857;BMP280;57147;53.582;10.112;2022-12-18T23:13:56;102192.41;;;-3.17
69857;BMP280;57147;53.582;10.112;2022-12-18T23:18:57;102182.00;;;-3.25
69857;BMP280;57147;53.582;10.112;2022-12-18T23:23:58;102168.69;;;-3.22
69857;BMP280;57147;53.582;10.112;2022-12-18T23:29:01;102167.06;;;-3.23
69857;BMP280;57147;53.582;10.112;2022-12-18T23:34:04;102180.41;;;-3.18
69857;BMP280;57147;53.582;10.112;2022-12-18T23:39:04;102175.53;;;-3.13
69857;BMP280;57147;53.582;10.112;2022-12-18T23:44:09;102123.31;;;-3.44
69857;BMP280;57147;53.582;10.112;2022-12-18T23:49:09;102167.06;;;-3.23
69857;BMP280;57147;53.582;10.112;2022-12-18T23:54:10;102138.16;;;-3.28
69857;BMP280;57147;53.582;10.112;2022-12-18T23:59:13;102152.22;;;-3.05
